sensor_id;sensor_type;location;lat;lon;timestamp;temperature;humidity
8914;DHT22;4492;48.736;9.092;2023-01-10T00:00:45;3.50;99.90
8914;DHT22;4492;48.736;9.092;2023-01-10T00:03:11;3.50;99.90
8914;DHT22;4492;48.736;9.092;2023-01-10T00:05:38;3.50;99.90
8914;DHT22;4492;48.736;9.092;2023-01-10T00:08:06;3.50;99.90
8914;DHT22;4492;48.736;9.092;2023-01-10T00:10:32;3.60;99.90
8914;DHT22;4492;48.736;9.092;2023-01-10T00:12:58;3.50;99.90
8914;DHT22;4492;48.736;9.092;2023-01-10T00:15:43;3.50;99.90
8914;DHT22;4492;48.736;9.092;2023-01-10T00:18:08;3.50;99.90
8914;DHT22;4492;48.736;9.092;2023-01-10T00:20:34;3.50;99.90
8914;DHT22;4492;48.736;9.092;2023-01-10T00:23:00;3.50;99.90
8914;DHT22;4492;48.736;9.092;2023-01-10T00:25:26;3.50;99.90
8914;DHT22;4492;48.736;9.092;2023-01-10T00:27:53;3.50;99.90
8914;DHT22;4492;48.736;9.092;2023-01-10T00:30:52;3.40;99.90
8914;DHT22;4492;48.736;9.092;2023-01-10T00:33:28;3.40;99.90
8914;DHT22;4492;48.736;9.092;2023-01-10T00:35:56;3.40;99.90
8914;DHT22;4492;48.736;9.092;2023-01-10T00:38:22;3.40;99.90
8914;DHT22;4492;48.736;9.092;2023-01-10T00:40:48;3.40;99.90
8914;DHT22;4492;48.736;9.092;2023-01-10T00:43:13;3.40;99.90
8914;DHT22;4492;48.736;9.092;2023-01-10T00:45:58;3.40;99.90
8914;DHT22;4492;48.736;9.092;2023-01-10T00:48:23;3.40;99.90
8914;DHT22;4492;48.736;9.092;2023-01-10T00:50:49;3.40;99.90
8914;DHT22;4492;48.736;9.092;2023-01-10T00:53:15;3.50;99.90
8914;DHT22;4492;48.736;9.092;2023-01-10T00:55:41;3.60;99.90
8914;DHT22;4492;48.736;9.092;2023-01-10T00:58:06;3.60;99.90
8914;DHT22;4492;48.736;9.092;2023-01-10T01:00:36;3.50;99.90
8914;DHT22;4492;48.736;9.092;2023-01-10T01:03:02;3.50;99.90
8914;DHT22;4492;48.736;9.092;2023-01-10T01:05:28;3.50;99.90
8914;DHT22;4492;48.736;9.092;2023-01-10T01:07:53;3.70;99.90
8914;DHT22;4492;48.736;9.092;2023-01-10T01:10:19;3.80;99.90
8914;DHT22;4492;48.736;9.092;2023-01-10T01:12:51;3.90;99.90
8914;DHT22;4492;48.736;9.092;2023-01-10T01:15:17;3.80;99.90
8914;DHT22;4492;48.736;9.092;2023-01-10T01:17:42;3.90;99.90
8914;DHT22;4492;48.736;9.092;2023-01-10T01:20:08;4.00;99.90
8914;DHT22;4492;48.736;9.092;2023-01-10T01:22:34;4.10;99.90
8914;DHT22;4492;48.736;9.092;2023-01-10T01:25:00;4.10;99.90
8914;DHT22;4492;48.736;9.092;2023-01-10T01:27:25;4.00;99.90
8914;DHT22;4492;48.736;9.092;2023-01-10T01:29:51;4.10;99.90
8914;DHT22;4492;48.736;9.092;2023-01-10T01:32:16;4.00;99.90
8914;DHT22;4492;48.736;9.092;2023-01-10T01:34:43;4.00;99.90
8914;DHT22;4492;48.736;9.092;2023-01-10T01:37:08;4.10;99.90
8914;DHT22;4492;48.736;9.092;2023-01-10T01:39:34;4.00;99.90
8914;DHT22;4492;48.736;9.092;2023-01-10T01:42:01;4.00;99.90
8914;DHT22;4492;48.736;9.092;2023-01-10T01:44:34;3.90;99.90
8914;DHT22;4492;48.736;9.092;2023-01-10T01:47:06;3.80;99.90
8914;DHT22;4492;48.736;9.092;2023-01-10T01:49:38;3.80;99.90
8914;DHT22;4492;48.736;9.092;2023-01-10T01:52:09;3.80;99.90
8914;DHT22;4492;48.736;9.092;2023-01-10T01:54:36;3.80;99.90
8914;DHT22;4492;48.736;9.092;2023-01-10T01:57:08;3.80;99.90
8914;DHT22;4492;48.736;9.092;2023-01-10T01:59:43;3.80;99.90
8914;DHT22;4492;48.736;9.092;2023-01-10T02:02:19;3.90;99.90
8914;DHT22;4492;48.736;9.092;2023-01-10T02:07:19;3.90;99.90
8914;DHT22;4492;48.736;9.092;2023-01-10T02:09:50;3.80;99.90
8914;DHT22;4492;48.736;9.092;2023-01-10T02:12:16;3.80;99.90
8914;DHT22;4492;48.736;9.092;2023-01-10T02:14:44;3.80;99.90
8914;DHT22;4492;48.736;9.092;2023-01-10T02:17:11;3.70;99.90
8914;DHT22;4492;48.736;9.092;2023-01-10T02:25:22;3.50;99.90
8914;DHT22;4492;48.736;9.092;2023-01-10T02:30:54;3.50;99.90
8914;DHT22;4492;48.736;9.092;2023-01-10T02:33:29;3.50;99.90
8914;DHT22;4492;48.736;9.092;2023-01-10T02:42:03;3.60;99.90
8914;DHT22;4492;48.736;9.092;2023-01-10T02:44:44;3.60;99.90
8914;DHT22;4492;48.736;9.092;2023-01-10T02:47:12;3.50;99.90
8914;DHT22;4492;48.736;9.092;2023-01-10T02:49:43;3.50;99.90
8914;DHT22;4492;48.736;9.092;2023-01-10T02:52:09;3.50;99.90
8914;DHT22;4492;48.736;9.092;2023-01-10T02:54:36;3.40;99.90
8914;DHT22;4492;48.736;9.092;2023-01-10T02:57:16;3.30;99.90
8914;DHT22;4492;48.736;9.092;2023-01-10T03:02:43;3.30;99.90
8914;DHT22;4492;48.736;9.092;2023-01-10T03:08:07;3.20;99.90
8914;DHT22;4492;48.736;9.092;2023-01-10T03:10:59;3.20;99.90
8914;DHT22;4492;48.736;9.092;2023-01-10T03:15:55;3.30;99.90
8914;DHT22;4492;48.736;9.092;2023-01-10T03:18:30;3.30;99.90
8914;DHT22;4492;48.736;9.092;2023-01-10T03:20:57;3.40;99.90
8914;DHT22;4492;48.736;9.092;2023-01-10T03:23:24;3.40;99.90
8914;DHT22;4492;48.736;9.092;2023-01-10T03:25:51;3.40;99.90
8914;DHT22;4492;48.736;9.092;2023-01-10T03:28:31;3.40;99.90
8914;DHT22;4492;48.736;9.092;2023-01-10T03:31:05;3.50;99.90
8914;DHT22;4492;48.736;9.092;2023-01-10T03:33:34;3.40;99.90
8914;DHT22;4492;48.736;9.092;2023-01-10T03:36:06;3.50;99.90
8914;DHT22;4492;48.736;9.092;2023-01-10T03:38:49;3.50;99.90
8914;DHT22;4492;48.736;9.092;2023-01-10T03:44:32;3.50;99.90
8914;DHT22;4492;48.736;9.092;2023-01-10T03:47:34;3.50;99.90
8914;DHT22;4492;48.736;9.092;2023-01-10T03:50:12;3.50;99.90
8914;DHT22;4492;48.736;9.092;2023-01-10T03:52:39;3.50;99.90
8914;DHT22;4492;48.736;9.092;2023-01-10T03:55:10;3.50;99.90
8914;DHT22;4492;48.736;9.092;2023-01-10T03:57:36;3.50;99.90
8914;DHT22;4492;48.736;9.092;2023-01-10T04:00:01;3.50;99.90
8914;DHT22;4492;48.736;9.092;2023-01-10T04:02:29;3.50;99.90
8914;DHT22;4492;48.736;9.092;2023-01-10T04:04:55;3.40;99.90
8914;DHT22;4492;48.736;9.092;2023-01-10T04:07:21;3.40;99.90
8914;DHT22;4492;48.736;9.092;2023-01-10T04:09:47;3.40;99.90
8914;DHT22;4492;48.736;9.092;2023-01-10T04:12:12;3.40;99.90
8914;DHT22;4492;48.736;9.092;2023-01-10T04:14:38;3.40;99.90
8914;DHT22;4492;48.736;9.092;2023-01-10T04:17:04;3.30;99.90
8914;DHT22;4492;48.736;9.092;2023-01-10T04:19:30;3.30;99.90
8914;DHT22;4492;48.736;9.092;2023-01-10T04:21:55;3.20;99.90
8914;DHT22;4492;48.736;9.092;2023-01-10T04:24:21;3.20;99.90
8914;DHT22;4492;48.736;9.092;2023-01-10T04:26:47;3.00;99.90
8914;DHT22;4492;48.736;9.092;2023-01-10T04:29:12;3.30;99.90
8914;DHT22;4492;48.736;9.092;2023-01-10T04:31:38;2.90;99.90
8914;DHT22;4492;48.736;9.092;2023-01-10T04:34:05;2.90;99.90
8914;DHT22;4492;48.736;9.092;2023-01-10T04:36:31;2.90;99.90
8914;DHT22;4492;48.736;9.092;2023-01-10T04:38:57;2.90;99.90
8914;DHT22;4492;48.736;9.092;2023-01-10T04:41:22;3.00;99.90
8914;DHT22;4492;48.736;9.092;2023-01-10T04:43:48;3.00;99.90
8914;DHT22;4492;48.736;9.092;2023-01-10T04:46:14;2.90;99.90
8914;DHT22;4492;48.736;9.092;2023-01-10T04:48:39;2.80;99.90
8914;DHT22;4492;48.736;9.092;2023-01-10T04:51:05;2.70;99.90
8914;DHT22;4492;48.736;9.092;2023-01-10T04:53:30;2.70;99.90
8914;DHT22;4492;48.736;9.092;2023-01-10T04:56:02;2.70;99.90
8914;DHT22;4492;48.736;9.092;2023-01-10T04:58:28;2.60;99.90
8914;DHT22;4492;48.736;9.092;2023-01-10T05:00:54;2.50;99.90
8914;DHT22;4492;48.736;9.092;2023-01-10T05:03:19;2.60;99.90
8914;DHT22;4492;48.736;9.092;2023-01-10T05:05:45;2.70;99.90
8914;DHT22;4492;48.736;9.092;2023-01-10T05:08:10;2.80;99.90
8914;DHT22;4492;48.736;9.092;2023-01-10T05:10:36;2.80;99.90
8914;DHT22;4492;48.736;9.092;2023-01-10T05:13:01;2.90;99.90
8914;DHT22;4492;48.736;9.092;2023-01-10T05:15:27;2.90;99.90
8914;DHT22;4492;48.736;9.092;2023-01-10T05:17:59;3.00;99.90
8914;DHT22;4492;48.736;9.092;2023-01-10T05:20:25;3.00;99.90
8914;DHT22;4492;48.736;9.092;2023-01-10T05:22:51;3.00;99.90
8914;DHT22;4492;48.736;9.092;2023-01-10T05:25:16;3.00;99.90
8914;DHT22;4492;48.736;9.092;2023-01-10T05:27:42;2.90;99.90
8914;DHT22;4492;48.736;9.092;2023-01-10T05:30:11;2.90;99.90
8914;DHT22;4492;48.736;9.092;2023-01-10T05:32:38;2.90;99.90
8914;DHT22;4492;48.736;9.092;2023-01-10T05:35:04;3.00;99.90
8914;DHT22;4492;48.736;9.092;2023-01-10T05:37:30;3.00;99.90
8914;DHT22;4492;48.736;9.092;2023-01-10T05:39:55;3.00;99.90
8914;DHT22;4492;48.736;9.092;2023-01-10T05:42:21;3.00;99.90
8914;DHT22;4492;48.736;9.092;2023-01-10T05:44:46;3.10;99.90
8914;DHT22;4492;48.736;9.092;2023-01-10T05:47:12;3.10;99.90
8914;DHT22;4492;48.736;9.092;2023-01-10T05:49:37;3.10;99.90
8914;DHT22;4492;48.736;9.092;2023-01-10T05:52:03;3.10;99.90
8914;DHT22;4492;48.736;9.092;2023-01-10T05:54:28;3.10;99.90
8914;DHT22;4492;48.736;9.092;2023-01-10T05:56:55;3.10;99.90
8914;DHT22;4492;48.736;9.092;2023-01-10T05:59:21;3.20;99.90
8914;DHT22;4492;48.736;9.092;2023-01-10T06:01:47;3.20;99.90
8914;DHT22;4492;48.736;9.092;2023-01-10T06:04:13;3.10;99.90
8914;DHT22;4492;48.736;9.092;2023-01-10T06:06:38;3.10;99.90
8914;DHT22;4492;48.736;9.092;2023-01-10T06:09:04;3.10;99.90
8914;DHT22;4492;48.736;9.092;2023-01-10T06:11:30;3.10;99.90
8914;DHT22;4492;48.736;9.092;2023-01-10T06:13:56;3.20;99.90
8914;DHT22;4492;48.736;9.092;2023-01-10T06:16:22;3.20;99.90
8914;DHT22;4492;48.736;9.092;2023-01-10T06:18:48;3.20;99.90
8914;DHT22;4492;48.736;9.092;2023-01-10T06:21:14;3.20;99.90
8914;DHT22;4492;48.736;9.092;2023-01-10T06:23:39;3.10;99.90
8914;DHT22;4492;48.736;9.092;2023-01-10T06:26:05;3.10;99.90
8914;DHT22;4492;48.736;9.092;2023-01-10T06:28:31;3.10;99.90
8914;DHT22;4492;48.736;9.092;2023-01-10T06:30:56;3.10;99.90
8914;DHT22;4492;48.736;9.092;2023-01-10T06:33:22;3.00;99.90
8914;DHT22;4492;48.736;9.092;2023-01-10T06:35:48;3.00;99.90
8914;DHT22;4492;48.736;9.092;2023-01-10T06:38:14;3.00;99.90
8914;DHT22;4492;48.736;9.092;2023-01-10T06:40:39;3.00;99.90
8914;DHT22;4492;48.736;9.092;2023-01-10T06:43:05;3.10;99.90
8914;DHT22;4492;48.736;9.092;2023-01-10T06:45:31;3.10;99.90
8914;DHT22;4492;48.736;9.092;2023-01-10T06:47:57;3.00;99.90
8914;DHT22;4492;48.736;9.092;2023-01-10T06:50:22;3.00;99.90
8914;DHT22;4492;48.736;9.092;2023-01-10T06:52:59;3.00;99.90
8914;DHT22;4492;48.736;9.092;2023-01-10T06:55:25;2.90;99.90
8914;DHT22;4492;48.736;9.092;2023-01-10T06:57:59;2.90;99.90
8914;DHT22;4492;48.736;9.092;2023-01-10T07:00:25;2.90;99.90
8914;DHT22;4492;48.736;9.092;2023-01-10T07:02:53;2.90;99.90
8914;DHT22;4492;48.736;9.092;2023-01-10T07:05:19;3.00;99.90
8914;DHT22;4492;48.736;9.092;2023-01-10T07:07:45;3.00;99.90
8914;DHT22;4492;48.736;9.092;2023-01-10T07:10:10;2.90;99.90
8914;DHT22;4492;48.736;9.092;2023-01-10T07:12:36;2.90;99.90
8914;DHT22;4492;48.736;9.092;2023-01-10T07:15:01;2.90;99.90
8914;DHT22;4492;48.736;9.092;2023-01-10T07:17:28;2.90;99.90
8914;DHT22;4492;48.736;9.092;2023-01-10T07:19:54;2.90;99.90
8914;DHT22;4492;48.736;9.092;2023-01-10T07:22:20;2.90;99.90
8914;DHT22;4492;48.736;9.092;2023-01-10T07:24:45;2.90;99.90
8914;DHT22;4492;48.736;9.092;2023-01-10T07:27:11;2.90;99.90
8914;DHT22;4492;48.736;9.092;2023-01-10T07:29:36;2.90;99.90
8914;DHT22;4492;48.736;9.092;2023-01-10T07:32:02;2.90;99.90
8914;DHT22;4492;48.736;9.092;2023-01-10T07:34:27;2.90;99.90
8914;DHT22;4492;48.736;9.092;2023-01-10T07:36:53;2.90;99.90
8914;DHT22;4492;48.736;9.092;2023-01-10T07:39:18;2.90;99.90
8914;DHT22;4492;48.736;9.092;2023-01-10T07:41:46;2.90;99.90
8914;DHT22;4492;48.736;9.092;2023-01-10T07:44:12;2.90;99.90
8914;DHT22;4492;48.736;9.092;2023-01-10T07:46:37;3.00;99.90
8914;DHT22;4492;48.736;9.092;2023-01-10T07:49:03;3.00;99.90
8914;DHT22;4492;48.736;9.092;2023-01-10T07:51:28;3.00;99.90
8914;DHT22;4492;48.736;9.092;2023-01-10T07:53:54;3.00;99.90
8914;DHT22;4492;48.736;9.092;2023-01-10T07:56:19;3.00;99.90
8914;DHT22;4492;48.736;9.092;2023-01-10T07:58:45;3.10;99.90
8914;DHT22;4492;48.736;9.092;2023-01-10T08:01:11;3.10;99.90
8914;DHT22;4492;48.736;9.092;2023-01-10T08:03:36;3.10;99.90
8914;DHT22;4492;48.736;9.092;2023-01-10T08:06:07;3.20;99.90
8914;DHT22;4492;48.736;9.092;2023-01-10T08:08:34;3.20;99.90
8914;DHT22;4492;48.736;9.092;2023-01-10T08:11:00;3.20;99.90
8914;DHT22;4492;48.736;9.092;2023-01-10T08:13:29;3.30;99.90
8914;DHT22;4492;48.736;9.092;2023-01-10T08:15:55;3.30;99.90
8914;DHT22;4492;48.736;9.092;2023-01-10T08:18:22;3.30;99.90
8914;DHT22;4492;48.736;9.092;2023-01-10T08:20:52;3.40;99.90
8914;DHT22;4492;48.736;9.092;2023-01-10T08:23:19;3.50;99.90
8914;DHT22;4492;48.736;9.092;2023-01-10T08:25:44;3.50;99.90
8914;DHT22;4492;48.736;9.092;2023-01-10T08:28:10;3.60;99.90
8914;DHT22;4492;48.736;9.092;2023-01-10T08:30:36;3.60;99.90
8914;DHT22;4492;48.736;9.092;2023-01-10T08:33:03;3.70;99.90
8914;DHT22;4492;48.736;9.092;2023-01-10T08:35:29;3.70;99.90
8914;DHT22;4492;48.736;9.092;2023-01-10T08:37:58;3.70;99.90
8914;DHT22;4492;48.736;9.092;2023-01-10T08:40:24;3.70;99.90
8914;DHT22;4492;48.736;9.092;2023-01-10T08:43:01;3.80;99.90
8914;DHT22;4492;48.736;9.092;2023-01-10T08:45:27;3.80;99.90
8914;DHT22;4492;48.736;9.092;2023-01-10T08:47:53;3.80;99.90
8914;DHT22;4492;48.736;9.092;2023-01-10T08:50:18;3.90;99.90
8914;DHT22;4492;48.736;9.092;2023-01-10T08:52:44;3.90;99.90
8914;DHT22;4492;48.736;9.092;2023-01-10T08:55:10;4.00;99.90
8914;DHT22;4492;48.736;9.092;2023-01-10T08:57:36;4.00;99.90
8914;DHT22;4492;48.736;9.092;2023-01-10T09:00:02;4.00;99.90
8914;DHT22;4492;48.736;9.092;2023-01-10T09:02:28;4.00;99.90
8914;DHT22;4492;48.736;9.092;2023-01-10T09:04:54;4.00;99.90
8914;DHT22;4492;48.736;9.092;2023-01-10T09:07:19;4.00;99.90
8914;DHT22;4492;48.736;9.092;2023-01-10T09:09:45;4.00;99.90
8914;DHT22;4492;48.736;9.092;2023-01-10T09:12:10;4.00;99.90
8914;DHT22;4492;48.736;9.092;2023-01-10T09:14:54;4.00;99.90
8914;DHT22;4492;48.736;9.092;2023-01-10T09:17:20;4.00;99.90
8914;DHT22;4492;48.736;9.092;2023-01-10T09:19:45;4.10;99.90
8914;DHT22;4492;48.736;9.092;2023-01-10T09:22:11;4.10;99.90
8914;DHT22;4492;48.736;9.092;2023-01-10T09:24:36;4.20;99.90
8914;DHT22;4492;48.736;9.092;2023-01-10T09:27:03;4.20;99.90
8914;DHT22;4492;48.736;9.092;2023-01-10T09:29:29;4.20;99.90
8914;DHT22;4492;48.736;9.092;2023-01-10T09:31:54;4.20;99.90
8914;DHT22;4492;48.736;9.092;2023-01-10T09:34:20;4.20;99.90
8914;DHT22;4492;48.736;9.092;2023-01-10T09:36:46;4.30;99.90
8914;DHT22;4492;48.736;9.092;2023-01-10T09:39:12;4.30;99.90
8914;DHT22;4492;48.736;9.092;2023-01-10T09:42:09;4.30;99.90
8914;DHT22;4492;48.736;9.092;2023-01-10T09:47:49;4.40;99.90
8914;DHT22;4492;48.736;9.092;2023-01-10T09:53:21;4.50;99.90
8914;DHT22;4492;48.736;9.092;2023-01-10T09:55:52;4.50;99.90
8914;DHT22;4492;48.736;9.092;2023-01-10T09:58:19;4.40;99.90
8914;DHT22;4492;48.736;9.092;2023-01-10T10:03:29;4.40;99.90
8914;DHT22;4492;48.736;9.092;2023-01-10T10:05:56;4.50;99.90
8914;DHT22;4492;48.736;9.092;2023-01-10T10:08:21;4.60;99.90
8914;DHT22;4492;48.736;9.092;2023-01-10T10:11:19;4.60;99.90
8914;DHT22;4492;48.736;9.092;2023-01-10T10:17:31;4.60;99.90
8914;DHT22;4492;48.736;9.092;2023-01-10T10:20:22;4.70;99.90
8914;DHT22;4492;48.736;9.092;2023-01-10T10:28:18;4.90;99.90
8914;DHT22;4492;48.736;9.092;2023-01-10T10:30:52;4.90;99.90
8914;DHT22;4492;48.736;9.092;2023-01-10T10:36:17;5.10;99.90
8914;DHT22;4492;48.736;9.092;2023-01-10T10:38:46;5.10;99.90
8914;DHT22;4492;48.736;9.092;2023-01-10T10:41:27;5.10;99.90
8914;DHT22;4492;48.736;9.092;2023-01-10T10:43:55;5.20;99.90
8914;DHT22;4492;48.736;9.092;2023-01-10T10:46:25;5.30;99.90
8914;DHT22;4492;48.736;9.092;2023-01-10T10:48:57;5.30;99.90
8914;DHT22;4492;48.736;9.092;2023-01-10T10:51:38;5.40;99.90
8914;DHT22;4492;48.736;9.092;2023-01-10T10:54:10;5.40;99.90
8914;DHT22;4492;48.736;9.092;2023-01-10T10:56:37;5.30;99.90
8914;DHT22;4492;48.736;9.092;2023-01-10T10:59:03;5.40;99.90
8914;DHT22;4492;48.736;9.092;2023-01-10T11:01:29;5.40;99.90
8914;DHT22;4492;48.736;9.092;2023-01-10T11:03:58;5.40;99.90
8914;DHT22;4492;48.736;9.092;2023-01-10T11:06:26;5.40;99.90
8914;DHT22;4492;48.736;9.092;2023-01-10T11:08:56;5.40;99.90
8914;DHT22;4492;48.736;9.092;2023-01-10T11:11:29;5.40;99.90
8914;DHT22;4492;48.736;9.092;2023-01-10T11:14:01;5.50;99.90
8914;DHT22;4492;48.736;9.092;2023-01-10T11:16:41;5.50;99.90
8914;DHT22;4492;48.736;9.092;2023-01-10T11:21:52;5.50;99.90
8914;DHT22;4492;48.736;9.092;2023-01-10T11:24:39;5.50;99.90
8914;DHT22;4492;48.736;9.092;2023-01-10T11:27:17;5.60;99.90
8914;DHT22;4492;48.736;9.092;2023-01-10T11:29:59;5.60;99.90
8914;DHT22;4492;48.736;9.092;2023-01-10T11:32:32;5.60;99.90
8914;DHT22;4492;48.736;9.092;2023-01-10T11:35:01;5.60;99.90
8914;DHT22;4492;48.736;9.092;2023-01-10T11:37:33;5.60;99.90
8914;DHT22;4492;48.736;9.092;2023-01-10T11:40:22;5.50;99.90
8914;DHT22;4492;48.736;9.092;2023-01-10T11:42:54;5.50;99.90
8914;DHT22;4492;48.736;9.092;2023-01-10T11:50:24;5.60;99.90
8914;DHT22;4492;48.736;9.092;2023-01-10T11:52:50;5.60;99.90
8914;DHT22;4492;48.736;9.092;2023-01-10T11:55:36;5.70;99.90
8914;DHT22;4492;48.736;9.092;2023-01-10T11:58:11;5.70;99.90
8914;DHT22;4492;48.736;9.092;2023-01-10T12:00:43;5.70;99.90
8914;DHT22;4492;48.736;9.092;2023-01-10T12:06:08;5.80;99.90
8914;DHT22;4492;48.736;9.092;2023-01-10T12:08:38;5.90;99.90
8914;DHT22;4492;48.736;9.092;2023-01-10T12:11:24;5.90;99.90
8914;DHT22;4492;48.736;9.092;2023-01-10T12:13:53;5.90;99.90
8914;DHT22;4492;48.736;9.092;2023-01-10T12:16:32;6.00;99.90
8914;DHT22;4492;48.736;9.092;2023-01-10T12:19:06;6.00;99.90
8914;DHT22;4492;48.736;9.092;2023-01-10T12:21:39;6.00;99.90
8914;DHT22;4492;48.736;9.092;2023-01-10T12:24:27;6.00;99.90
8914;DHT22;4492;48.736;9.092;2023-01-10T12:26:55;6.00;99.90
8914;DHT22;4492;48.736;9.092;2023-01-10T12:29:27;6.20;99.90
8914;DHT22;4492;48.736;9.092;2023-01-10T12:31:54;6.30;99.90
8914;DHT22;4492;48.736;9.092;2023-01-10T12:34:32;6.30;99.90
8914;DHT22;4492;48.736;9.092;2023-01-10T12:39:31;6.10;99.90
8914;DHT22;4492;48.736;9.092;2023-01-10T12:44:45;6.30;99.90
8914;DHT22;4492;48.736;9.092;2023-01-10T12:47:28;6.20;99.90
8914;DHT22;4492;48.736;9.092;2023-01-10T12:50:11;6.20;99.90
8914;DHT22;4492;48.736;9.092;2023-01-10T12:53:05;6.30;99.90
8914;DHT22;4492;48.736;9.092;2023-01-10T12:55:37;6.30;99.90
8914;DHT22;4492;48.736;9.092;2023-01-10T12:58:05;6.30;99.90
8914;DHT22;4492;48.736;9.092;2023-01-10T13:00:45;6.20;99.90
8914;DHT22;4492;48.736;9.092;2023-01-10T13:03:25;6.10;99.90
8914;DHT22;4492;48.736;9.092;2023-01-10T13:05:52;6.00;99.90
8914;DHT22;4492;48.736;9.092;2023-01-10T13:08:23;5.90;99.90
8914;DHT22;4492;48.736;9.092;2023-01-10T13:10:52;5.90;99.90
8914;DHT22;4492;48.736;9.092;2023-01-10T13:13:47;5.90;99.90
8914;DHT22;4492;48.736;9.092;2023-01-10T13:16:42;6.00;99.90
8914;DHT22;4492;48.736;9.092;2023-01-10T13:21:40;5.90;99.90
8914;DHT22;4492;48.736;9.092;2023-01-10T13:24:26;5.90;99.90
8914;DHT22;4492;48.736;9.092;2023-01-10T13:26:55;5.90;99.90
8914;DHT22;4492;48.736;9.092;2023-01-10T13:29:37;5.90;99.90
8914;DHT22;4492;48.736;9.092;2023-01-10T13:32:26;5.90;99.90
8914;DHT22;4492;48.736;9.092;2023-01-10T13:34:52;5.90;99.90
8914;DHT22;4492;48.736;9.092;2023-01-10T13:37:23;5.90;99.90
8914;DHT22;4492;48.736;9.092;2023-01-10T13:39:56;5.90;99.90
8914;DHT22;4492;48.736;9.092;2023-01-10T13:42:34;5.90;99.90
8914;DHT22;4492;48.736;9.092;2023-01-10T13:45:26;5.80;99.90
8914;DHT22;4492;48.736;9.092;2023-01-10T13:47:57;5.80;99.90
8914;DHT22;4492;48.736;9.092;2023-01-10T13:52:52;5.80;99.90
8914;DHT22;4492;48.736;9.092;2023-01-10T14:11:29;5.80;99.90
8914;DHT22;4492;48.736;9.092;2023-01-10T14:14:00;5.80;99.90
8914;DHT22;4492;48.736;9.092;2023-01-10T14:16:33;5.80;99.90
8914;DHT22;4492;48.736;9.092;2023-01-10T14:19:01;5.70;99.90
8914;DHT22;4492;48.736;9.092;2023-01-10T14:21:29;5.70;99.90
8914;DHT22;4492;48.736;9.092;2023-01-10T14:23:56;5.60;99.90
8914;DHT22;4492;48.736;9.092;2023-01-10T14:26:36;5.50;99.90
8914;DHT22;4492;48.736;9.092;2023-01-10T14:29:07;5.40;99.90
8914;DHT22;4492;48.736;9.092;2023-01-10T14:31:37;5.30;99.90
8914;DHT22;4492;48.736;9.092;2023-01-10T14:34:03;5.30;99.90
8914;DHT22;4492;48.736;9.092;2023-01-10T14:36:41;5.20;99.90
8914;DHT22;4492;48.736;9.092;2023-01-10T14:39:12;5.10;99.90
8914;DHT22;4492;48.736;9.092;2023-01-10T14:41:43;5.00;99.90
8914;DHT22;4492;48.736;9.092;2023-01-10T14:44:37;4.90;99.90
8914;DHT22;4492;48.736;9.092;2023-01-10T14:49:49;4.80;99.90
8914;DHT22;4492;48.736;9.092;2023-01-10T14:52:24;4.80;99.90
8914;DHT22;4492;48.736;9.092;2023-01-10T14:57:26;4.70;99.90
8914;DHT22;4492;48.736;9.092;2023-01-10T15:00:01;4.60;99.90
8914;DHT22;4492;48.736;9.092;2023-01-10T15:02:29;4.60;99.90
8914;DHT22;4492;48.736;9.092;2023-01-10T15:04:59;4.60;99.90
8914;DHT22;4492;48.736;9.092;2023-01-10T15:07:27;4.50;99.90
8914;DHT22;4492;48.736;9.092;2023-01-10T15:09:55;4.50;99.90
8914;DHT22;4492;48.736;9.092;2023-01-10T15:12:23;4.40;99.90
8914;DHT22;4492;48.736;9.092;2023-01-10T15:14:58;4.40;99.90
8914;DHT22;4492;48.736;9.092;2023-01-10T15:17:25;4.30;99.90
8914;DHT22;4492;48.736;9.092;2023-01-10T15:19:52;4.30;99.90
8914;DHT22;4492;48.736;9.092;2023-01-10T15:22:29;4.20;99.90
8914;DHT22;4492;48.736;9.092;2023-01-10T15:25:02;4.20;99.90
8914;DHT22;4492;48.736;9.092;2023-01-10T15:27:29;4.10;99.90
8914;DHT22;4492;48.736;9.092;2023-01-10T15:29:55;4.10;99.90
8914;DHT22;4492;48.736;9.092;2023-01-10T15:32:33;4.10;99.90
8914;DHT22;4492;48.736;9.092;2023-01-10T15:35:00;4.10;99.90
8914;DHT22;4492;48.736;9.092;2023-01-10T15:37:28;4.10;99.90
8914;DHT22;4492;48.736;9.092;2023-01-10T15:39:59;4.00;99.90
8914;DHT22;4492;48.736;9.092;2023-01-10T15:42:26;4.00;99.90
8914;DHT22;4492;48.736;9.092;2023-01-10T15:44:52;4.00;99.90
8914;DHT22;4492;48.736;9.092;2023-01-10T15:49:59;3.90;99.90
8914;DHT22;4492;48.736;9.092;2023-01-10T15:52:24;3.90;99.90
8914;DHT22;4492;48.736;9.092;2023-01-10T15:54:50;3.80;99.90
8914;DHT22;4492;48.736;9.092;2023-01-10T15:57:36;3.80;99.90
8914;DHT22;4492;48.736;9.092;2023-01-10T16:00:02;3.70;99.90
8914;DHT22;4492;48.736;9.092;2023-01-10T16:02:30;3.70;99.90
8914;DHT22;4492;48.736;9.092;2023-01-10T16:05:08;3.60;99.90
8914;DHT22;4492;48.736;9.092;2023-01-10T16:07:41;3.50;99.90
8914;DHT22;4492;48.736;9.092;2023-01-10T16:12:41;3.40;99.90
8914;DHT22;4492;48.736;9.092;2023-01-10T16:15:27;3.30;99.90
8914;DHT22;4492;48.736;9.092;2023-01-10T16:17:54;3.30;99.90
8914;DHT22;4492;48.736;9.092;2023-01-10T16:22:51;3.20;99.90
8914;DHT22;4492;48.736;9.092;2023-01-10T16:25:20;3.20;99.90
8914;DHT22;4492;48.736;9.092;2023-01-10T16:27:47;3.10;99.90
8914;DHT22;4492;48.736;9.092;2023-01-10T16:30:36;3.00;99.90
8914;DHT22;4492;48.736;9.092;2023-01-10T16:33:31;3.00;99.90
8914;DHT22;4492;48.736;9.092;2023-01-10T16:35:58;3.00;99.90
8914;DHT22;4492;48.736;9.092;2023-01-10T16:38:26;3.00;99.90
8914;DHT22;4492;48.736;9.092;2023-01-10T16:40:56;3.00;99.90
8914;DHT22;4492;48.736;9.092;2023-01-10T16:43:22;2.90;99.90
8914;DHT22;4492;48.736;9.092;2023-01-10T16:45:53;3.00;99.90
8914;DHT22;4492;48.736;9.092;2023-01-10T16:48:24;3.00;99.90
8914;DHT22;4492;48.736;9.092;2023-01-10T16:50:50;3.00;99.90
8914;DHT22;4492;48.736;9.092;2023-01-10T16:53:18;3.10;99.90
8914;DHT22;4492;48.736;9.092;2023-01-10T16:55:45;3.10;99.90
8914;DHT22;4492;48.736;9.092;2023-01-10T16:58:12;3.10;99.90
8914;DHT22;4492;48.736;9.092;2023-01-10T17:00:39;3.20;99.90
8914;DHT22;4492;48.736;9.092;2023-01-10T17:03:07;3.20;99.90
8914;DHT22;4492;48.736;9.092;2023-01-10T17:05:36;3.20;99.90
8914;DHT22;4492;48.736;9.092;2023-01-10T17:08:02;3.20;99.90
8914;DHT22;4492;48.736;9.092;2023-01-10T17:10:29;3.30;99.90
8914;DHT22;4492;48.736;9.092;2023-01-10T17:12:55;3.30;99.90
8914;DHT22;4492;48.736;9.092;2023-01-10T17:15:21;3.30;99.90
8914;DHT22;4492;48.736;9.092;2023-01-10T17:17:46;3.30;99.90
8914;DHT22;4492;48.736;9.092;2023-01-10T17:20:13;3.30;99.90
8914;DHT22;4492;48.736;9.092;2023-01-10T17:22:40;3.30;99.90
8914;DHT22;4492;48.736;9.092;2023-01-10T17:25:06;3.30;99.90
8914;DHT22;4492;48.736;9.092;2023-01-10T17:27:33;3.30;99.90
8914;DHT22;4492;48.736;9.092;2023-01-10T17:29:58;3.30;99.90
8914;DHT22;4492;48.736;9.092;2023-01-10T17:32:24;3.30;99.90
8914;DHT22;4492;48.736;9.092;2023-01-10T17:34:49;3.30;99.90
8914;DHT22;4492;48.736;9.092;2023-01-10T17:37:15;3.30;99.90
8914;DHT22;4492;48.736;9.092;2023-01-10T17:39:40;3.30;99.90
8914;DHT22;4492;48.736;9.092;2023-01-10T17:42:06;3.30;99.90
8914;DHT22;4492;48.736;9.092;2023-01-10T17:44:32;3.30;99.90
8914;DHT22;4492;48.736;9.092;2023-01-10T17:46:57;3.30;99.90
8914;DHT22;4492;48.736;9.092;2023-01-10T17:49:23;3.30;99.90
8914;DHT22;4492;48.736;9.092;2023-01-10T17:51:49;3.30;99.90
8914;DHT22;4492;48.736;9.092;2023-01-10T17:54:14;3.30;99.90
8914;DHT22;4492;48.736;9.092;2023-01-10T17:56:40;3.30;99.90
8914;DHT22;4492;48.736;9.092;2023-01-10T17:59:06;3.30;99.90
8914;DHT22;4492;48.736;9.092;2023-01-10T18:01:31;3.40;99.90
8914;DHT22;4492;48.736;9.092;2023-01-10T18:03:57;3.40;99.90
8914;DHT22;4492;48.736;9.092;2023-01-10T18:06:22;3.40;99.90
8914;DHT22;4492;48.736;9.092;2023-01-10T18:08:48;3.40;99.90
8914;DHT22;4492;48.736;9.092;2023-01-10T18:11:13;3.30;99.90